createdAt,value
2023-04-15T00:00:18.128Z,151405.41
2023-04-15T00:02:58.441Z,151402.88
2023-04-15T00:05:32.259Z,151405.41
2023-04-15T00:08:07.273Z,151417.06
2023-04-15T00:10:41.426Z,151397.72
2023-04-15T00:13:16.104Z,151395.13
2023-04-15T00:15:47.936Z,151397.72
2023-04-15T00:18:19.756Z,151405.41
2023-04-15T00:20:54.742Z,151419.59
2023-04-15T00:23:27.133Z,151444.09
2023-04-15T00:25:57.671Z,151454.38
2023-04-15T00:28:31.676Z,151449.25
2023-04-15T00:31:02.704Z,151449.25
2023-04-15T00:33:33.053Z,151460.88
2023-04-15T00:36:03.919Z,151478.88
2023-04-15T00:38:34.395Z,151484.03
2023-04-15T00:41:05.049Z,151487.91
2023-04-15T00:43:38.651Z,151489.19
2023-04-15T00:46:10.946Z,151495.66
2023-04-15T00:48:42.836Z,151493.06
2023-04-15T00:51:14.245Z,151495.66
2023-04-15T00:53:45.333Z,151500.81
2023-04-15T00:56:17.675Z,151490.50
2023-04-15T00:58:54.573Z,151484.03
2023-04-15T01:01:26.707Z,151489.19
2023-04-15T01:03:59.507Z,151499.50
2023-04-15T01:06:33.146Z,151508.53
2023-04-15T01:09:05.291Z,151512.41
2023-04-15T01:11:47.457Z,151522.72
2023-04-15T01:14:27.148Z,151538.16
2023-04-15T01:16:58.443Z,151549.81
2023-04-15T01:19:31.117Z,151561.41
2023-04-15T01:22:02.381Z,151566.53
2023-04-15T01:24:37.365Z,151574.31
2023-04-15T01:27:11.198Z,151583.28
2023-04-15T01:29:43.854Z,151588.44
2023-04-15T01:32:16.080Z,151597.47
2023-04-15T01:34:46.680Z,151600.06
2023-04-15T01:37:18.686Z,151606.50
2023-04-15T01:39:49.771Z,151609.13
2023-04-15T01:42:24.818Z,151611.66
2023-04-15T01:44:55.760Z,151623.31
2023-04-15T01:47:27.045Z,151621.97
2023-04-15T01:49:57.731Z,151627.13
2023-04-15T01:52:28.849Z,151634.88
2023-04-15T01:55:01.220Z,151641.31
2023-04-15T01:57:34.975Z,151650.34
2023-04-15T02:00:06.690Z,151658.13
2023-04-15T02:02:45.285Z,151664.53
2023-04-15T02:05:16.783Z,151668.44
2023-04-15T02:07:51.849Z,151674.84
2023-04-15T02:10:22.857Z,151676.13
2023-04-15T02:12:58.663Z,151664.53
2023-04-15T02:15:33.933Z,151658.13
2023-04-15T02:18:06.826Z,151650.34
2023-04-15T02:20:39.383Z,151656.78
2023-04-15T02:23:09.968Z,151663.28
2023-04-15T02:25:41.118Z,151667.09
2023-04-15T02:28:14.730Z,151682.63
2023-04-15T02:30:53.704Z,151691.59
2023-04-15T02:33:25.591Z,151692.94
2023-04-15T02:35:56.560Z,151701.97
2023-04-15T02:38:27.750Z,151707.13
2023-04-15T02:40:59.379Z,151708.41
2023-04-15T02:43:33.836Z,151717.44
2023-04-15T02:46:06.319Z,151707.13
2023-04-15T02:48:37.582Z,151690.34
2023-04-15T02:51:20.153Z,151683.91
2023-04-15T02:53:51.080Z,151692.94
2023-04-15T02:56:23.976Z,151696.75
2023-04-15T02:58:58.017Z,151690.34
2023-04-15T03:01:28.931Z,151686.44
2023-04-15T03:03:59.567Z,151694.22
2023-04-15T03:06:30.171Z,151707.13
2023-04-15T03:09:01.368Z,151723.88
2023-04-15T03:11:40.864Z,151720.00
2023-04-15T03:14:16.309Z,151725.16
2023-04-15T03:16:50.995Z,151721.28
2023-04-15T03:19:22.329Z,151714.84
2023-04-15T03:21:53.245Z,151721.28
2023-04-15T03:24:25.185Z,151725.16
2023-04-15T03:26:56.043Z,151713.56
2023-04-15T03:29:30.215Z,151708.41
2023-04-15T03:32:00.933Z,151705.81
2023-04-15T03:34:36.016Z,151710.97
2023-04-15T03:37:06.612Z,151718.72
2023-04-15T03:39:38.431Z,151716.13
2023-04-15T03:42:09.414Z,151713.56
2023-04-15T03:44:43.230Z,151729.03
2023-04-15T03:47:13.421Z,151720.00
2023-04-15T03:49:43.948Z,151720.00
2023-04-15T03:52:14.558Z,151708.41
2023-04-15T03:54:46.679Z,151709.69
2023-04-15T03:57:17.140Z,151689.06
2023-04-15T03:59:50.985Z,151686.44
2023-04-15T04:02:21.540Z,151672.31
2023-04-15T04:04:52.483Z,151680.03
2023-04-15T04:07:23.058Z,151672.31
2023-04-15T04:09:53.559Z,151673.59
2023-04-15T04:12:23.945Z,151673.59
2023-04-15T04:14:57.258Z,151683.91
2023-04-15T04:17:28.366Z,151681.28
2023-04-15T04:19:58.918Z,151678.75
2023-04-15T04:22:29.142Z,151696.75
2023-04-15T04:25:00.898Z,151691.59
2023-04-15T04:27:31.679Z,151696.75
2023-04-15T04:30:05.320Z,151699.38
2023-04-15T04:32:35.898Z,151704.53
2023-04-15T04:35:07.853Z,151707.13
2023-04-15T04:37:38.767Z,151721.28
2023-04-15T04:40:11.490Z,151732.91
2023-04-15T04:42:41.964Z,151741.94
2023-04-15T04:45:16.602Z,151735.47
2023-04-15T04:47:50.689Z,151740.63
2023-04-15T04:50:22.026Z,151726.44
2023-04-15T04:52:52.907Z,151741.94
2023-04-15T04:55:24.456Z,151722.59
2023-04-15T04:57:55.975Z,151725.16
2023-04-15T05:00:31.133Z,151734.19
2023-04-15T05:03:02.659Z,151748.38
2023-04-15T05:05:35.925Z,151765.13
2023-04-15T05:08:07.146Z,151776.78
2023-04-15T05:10:37.883Z,151809.00
2023-04-15T05:13:08.745Z,151818.03
2023-04-15T05:15:44.015Z,151849.03
2023-04-15T05:18:14.902Z,151886.50
2023-04-15T05:20:45.939Z,151912.28
2023-04-15T05:23:16.794Z,151948.47
2023-04-15T05:25:47.491Z,151989.75
2023-04-15T05:28:18.301Z,152028.47
2023-04-15T05:30:52.693Z,152056.84
2023-04-15T05:33:24.126Z,152093.03
2023-04-15T05:35:55.031Z,152131.78
2023-04-15T05:38:26.004Z,152158.88
2023-04-15T05:40:59.762Z,152213.13
2023-04-15T05:43:31.937Z,152246.72
2023-04-15T05:46:06.148Z,152291.94
2023-04-15T05:48:37.251Z,152348.81
2023-04-15T05:51:09.004Z,152453.50
2023-04-15T05:53:41.588Z,152487.16
2023-04-15T05:56:12.172Z,152457.38
2023-04-15T05:58:42.944Z,152483.28
2023-04-15T06:01:16.568Z,152513.00
2023-04-15T06:03:47.532Z,152518.19
2023-04-15T06:06:21.365Z,152534.97
2023-04-15T06:08:52.166Z,152524.63
2023-04-15T06:11:24.744Z,152498.78
2023-04-15T06:13:55.144Z,152491.00
2023-04-15T06:16:28.748Z,152459.94
2023-04-15T06:18:59.451Z,152412.09
2023-04-15T06:21:30.741Z,152388.88
2023-04-15T06:24:02.890Z,152387.53
2023-04-15T06:26:34.653Z,152417.31
2023-04-15T06:29:05.202Z,152479.38
2023-04-15T06:31:38.798Z,152474.22
2023-04-15T06:34:09.049Z,152461.22
2023-04-15T06:36:39.669Z,152461.22
2023-04-15T06:39:10.465Z,152484.56
2023-04-15T06:41:41.145Z,152501.38
2023-04-15T06:44:11.875Z,152498.78
2023-04-15T06:46:46.105Z,152577.66
2023-04-15T06:49:17.169Z,152617.75
2023-04-15T06:51:47.817Z,152619.03
2023-04-15T06:54:18.903Z,152586.72
2023-04-15T06:56:50.273Z,152643.59
2023-04-15T06:59:21.094Z,152661.72
2023-04-15T07:01:54.608Z,152731.56
2023-04-15T07:04:26.264Z,152787.19
2023-04-15T07:06:57.555Z,152836.34
2023-04-15T07:09:28.228Z,152804.03
2023-04-15T07:11:58.959Z,152880.38
2023-04-15T07:14:29.870Z,152888.16
2023-04-15T07:17:04.433Z,152828.63
2023-04-15T07:19:35.338Z,152744.53
2023-04-15T07:22:06.161Z,152725.09
2023-04-15T07:24:36.598Z,152805.31
2023-04-15T07:27:08.167Z,152819.56
2023-04-15T07:29:39.530Z,152857.06
2023-04-15T07:32:14.169Z,152775.56
2023-04-15T07:34:45.557Z,152760.03
2023-04-15T07:37:16.338Z,152823.44
2023-04-15T07:39:47.016Z,152791.06
2023-04-15T07:42:17.870Z,152815.66
2023-04-15T07:44:48.872Z,152832.50
2023-04-15T07:47:22.691Z,152836.34
2023-04-15T07:49:53.566Z,152894.59
2023-04-15T07:52:24.430Z,152965.81
2023-04-15T07:54:55.080Z,153024.09
2023-04-15T07:57:25.842Z,152985.25
2023-04-15T07:59:57.602Z,152969.72
2023-04-15T08:02:32.163Z,152974.91
2023-04-15T08:05:04.707Z,152939.91
2023-04-15T08:07:37.345Z,152981.41
2023-04-15T08:10:08.990Z,153070.75
2023-04-15T08:12:39.996Z,153026.72
2023-04-15T08:15:11.693Z,153007.28
2023-04-15T08:17:45.309Z,153073.31
2023-04-15T08:20:15.707Z,153086.28
2023-04-15T08:22:48.653Z,153043.53
2023-04-15T08:25:20.516Z,153056.50
2023-04-15T08:27:51.584Z,153091.44
2023-04-15T08:30:23.199Z,153157.47
2023-04-15T08:32:56.892Z,153178.19
2023-04-15T08:35:27.761Z,153104.38
2023-04-15T08:41:05.951Z,152983.97
2023-04-15T08:52:30.604Z,152860.94
2023-04-15T08:58:05.291Z,152866.13
2023-04-15T09:00:37.665Z,152866.13
2023-04-15T09:03:10.420Z,152876.47
2023-04-15T09:05:43.932Z,152929.56
2023-04-15T09:08:14.726Z,152991.75
2023-04-15T09:10:46.866Z,153056.50
2023-04-15T09:13:17.479Z,153096.63
2023-04-15T09:15:49.273Z,153026.72
2023-04-15T09:18:32.522Z,153026.72
2023-04-15T09:21:13.116Z,152969.72
2023-04-15T09:23:45.966Z,153007.28
2023-04-15T09:26:18.504Z,152991.75
2023-04-15T09:28:49.364Z,152893.31
2023-04-15T09:31:20.613Z,152845.41
2023-04-15T09:34:00.279Z,152845.41
2023-04-15T09:36:40.113Z,152813.09
2023-04-15T09:39:11.065Z,152864.84
2023-04-15T09:41:42.332Z,152932.16
2023-04-15T09:44:27.118Z,152784.63
2023-04-15T09:46:58.522Z,152816.94
2023-04-15T09:49:30.469Z,152894.59
2023-04-15T09:52:09.301Z,152822.13
2023-04-15T09:54:42.392Z,152837.69
2023-04-15T09:57:15.439Z,152875.19
2023-04-15T09:59:49.038Z,152904.97
2023-04-15T10:02:22.372Z,152871.28
2023-04-15T10:07:46.804Z,152999.50
2023-04-15T10:10:18.874Z,152939.91
2023-04-15T10:12:50.212Z,152866.13
2023-04-15T10:15:23.048Z,152848.03
2023-04-15T10:17:57.382Z,152912.75
2023-04-15T10:20:28.501Z,152924.38
2023-04-15T10:23:03.066Z,152925.66
2023-04-15T10:25:35.122Z,152844.13
2023-04-15T10:28:06.700Z,152890.72
2023-04-15T10:30:40.297Z,152916.63
2023-04-15T10:33:14.287Z,152901.06
2023-04-15T10:35:46.774Z,152863.56
2023-04-15T10:38:38.827Z,152796.25
2023-04-15T10:41:23.346Z,152815.66
2023-04-15T10:43:55.651Z,152775.56
2023-04-15T10:46:41.202Z,152745.81
2023-04-15T10:49:13.836Z,152794.97
2023-04-15T10:51:45.884Z,152841.53
2023-04-15T10:54:36.692Z,152912.75
2023-04-15T10:57:19.250Z,152911.41
2023-04-15T11:00:14.034Z,152971.06
2023-04-15T11:02:48.006Z,153003.38
2023-04-15T11:05:19.405Z,153070.75
2023-04-15T11:07:59.283Z,153057.78
2023-04-15T11:10:59.985Z,153042.25
2023-04-15T11:13:33.485Z,153051.31
2023-04-15T11:16:05.956Z,153091.44
2023-04-15T11:18:38.722Z,153095.34
2023-04-15T11:21:10.882Z,153151.03
2023-04-15T11:23:47.414Z,153215.78
2023-04-15T11:26:21.382Z,153184.72
2023-04-15T11:29:00.337Z,153211.88
2023-04-15T11:31:39.816Z,153242.97
2023-04-15T11:34:10.961Z,153193.78
2023-04-15T11:36:41.949Z,153086.28
2023-04-15T11:39:12.672Z,153178.19
2023-04-15T11:41:49.851Z,153092.72
2023-04-15T11:44:21.474Z,153239.13
2023-04-15T11:46:52.230Z,153178.19
2023-04-15T11:49:34.716Z,153118.63
2023-04-15T11:52:05.735Z,153108.28
2023-04-15T11:54:38.251Z,153139.38
2023-04-15T11:57:12.432Z,153226.16
2023-04-15T11:59:46.720Z,153235.22
2023-04-15T12:02:18.497Z,153094.00
2023-04-15T12:04:50.062Z,153051.31
2023-04-15T12:07:21.754Z,153038.34
2023-04-15T12:09:59.610Z,152925.66
2023-04-15T12:12:36.267Z,152999.50
2023-04-15T12:15:10.253Z,152999.50
2023-04-15T12:17:52.365Z,152976.22
2023-04-15T12:20:31.061Z,152967.16
2023-04-15T12:23:15.614Z,152955.47
2023-04-15T12:26:08.263Z,153002.09
2023-04-15T12:28:57.882Z,152919.19
2023-04-15T12:31:43.080Z,152915.31
2023-04-15T12:34:22.302Z,152884.25
2023-04-15T12:37:15.596Z,152775.56
2023-04-15T12:40:12.000Z,152700.53
2023-04-15T12:42:43.173Z,152700.53
2023-04-15T12:45:29.460Z,152760.03
2023-04-15T12:51:47.199Z,152672.06
2023-04-15T12:54:37.782Z,152895.88
2023-04-15T12:57:32.135Z,152998.22
2023-04-15T13:03:17.256Z,153232.63
2023-04-15T13:05:58.207Z,153348.00
2023-04-15T13:11:49.001Z,153425.75
2023-04-15T13:14:28.376Z,153393.38
2023-04-15T13:17:05.395Z,153433.53
2023-04-15T13:19:38.826Z,153392.09
2023-04-15T13:22:10.657Z,153399.84
2023-04-15T13:24:41.622Z,153399.84
2023-04-15T13:27:12.714Z,153355.75
2023-04-15T13:29:43.866Z,153434.81
2023-04-15T13:32:15.085Z,153392.09
2023-04-15T13:34:49.410Z,153380.38
2023-04-15T13:37:22.489Z,153438.72
2023-04-15T13:39:53.068Z,153463.34
2023-04-15T13:42:28.069Z,153523.00
2023-04-15T13:44:58.757Z,153513.91
2023-04-15T13:47:29.947Z,153580.06
2023-04-15T13:50:04.262Z,153560.63
2023-04-15T13:52:35.185Z,153615.06
2023-04-15T13:55:18.382Z,153600.81
2023-04-15T13:57:51.148Z,153511.34
2023-04-15T14:00:22.451Z,153535.97
2023-04-15T14:02:53.762Z,153576.16
2023-04-15T14:05:27.477Z,153555.44
2023-04-15T14:07:58.177Z,153473.72
2023-04-15T14:10:29.860Z,153454.28
2023-04-15T14:13:01.534Z,153463.34
2023-04-15T14:15:33.520Z,153463.34
2023-04-15T14:18:04.111Z,153469.81
2023-04-15T14:20:38.000Z,153452.97
2023-04-15T14:23:09.398Z,153480.19
2023-04-15T14:25:41.473Z,153525.59
2023-04-15T14:28:12.532Z,153500.97
2023-04-15T14:30:46.360Z,153468.53
2023-04-15T14:33:17.275Z,153512.63
2023-04-15T14:35:50.904Z,153502.25
2023-04-15T14:38:22.963Z,153502.25
2023-04-15T14:40:54.205Z,153437.44
2023-04-15T14:43:25.032Z,153412.81
2023-04-15T14:45:56.303Z,153393.38
2023-04-15T14:48:29.324Z,153421.88
2023-04-15T14:51:03.090Z,153383.00
2023-04-15T14:53:52.676Z,153388.19
2023-04-15T14:56:23.520Z,153389.47
2023-04-15T14:58:57.349Z,153381.66
2023-04-15T15:01:31.009Z,153366.13
2023-04-15T15:04:15.160Z,153293.53
2023-04-15T15:06:49.195Z,153235.22
2023-04-15T15:09:20.596Z,153170.47
2023-04-15T15:11:51.186Z,152939.91
2023-04-15T15:14:27.317Z,152826.00
2023-04-15T15:16:58.594Z,152638.41
2023-04-15T15:19:29.161Z,152598.34
2023-04-15T15:22:03.321Z,152496.16
2023-04-15T15:24:36.499Z,152582.81
2023-04-15T15:27:10.961Z,152581.53
2023-04-15T15:29:43.781Z,152603.50
2023-04-15T15:32:14.705Z,152516.91
2023-04-15T15:34:49.978Z,152611.28
2023-04-15T15:37:30.891Z,152567.31
2023-04-15T15:40:02.545Z,152568.59
2023-04-15T15:42:35.310Z,152586.72
2023-04-15T15:45:10.807Z,152562.16
2023-04-15T15:47:45.362Z,152575.03
2023-04-15T15:50:18.283Z,152564.69
2023-04-15T15:52:51.824Z,152528.50
2023-04-15T15:55:30.325Z,152588.00
2023-04-15T15:58:11.847Z,152619.03
2023-04-15T16:00:44.227Z,152603.50
2023-04-15T16:03:18.711Z,152569.88
2023-04-15T16:05:50.058Z,152551.81
2023-04-15T16:08:23.882Z,152566.03
2023-04-15T16:10:58.074Z,152613.84
2023-04-15T16:13:29.504Z,152642.31
2023-04-15T16:16:00.774Z,152656.53
2023-04-15T16:18:43.887Z,152677.22
2023-04-15T16:21:16.286Z,152674.66
2023-04-15T16:24:09.850Z,152678.50
2023-04-15T16:26:40.863Z,152657.81
2023-04-15T16:29:11.755Z,152675.94
2023-04-15T16:31:42.720Z,152638.41
2023-04-15T16:34:14.002Z,152610.00
2023-04-15T16:36:45.279Z,152641.03
2023-04-15T16:39:24.649Z,152674.66
2023-04-15T16:41:56.246Z,152687.56
2023-04-15T16:44:27.757Z,152701.81
2023-04-15T16:46:58.367Z,152681.13
2023-04-15T16:49:29.493Z,152691.47
2023-04-15T16:52:03.674Z,152674.66
2023-04-15T16:54:41.828Z,152657.81
2023-04-15T16:57:12.788Z,152659.09
2023-04-15T16:59:44.219Z,152620.34
2023-04-15T17:02:16.852Z,152626.78
2023-04-15T17:04:49.039Z,152619.03
2023-04-15T17:07:19.733Z,152604.78
2023-04-15T17:10:12.627Z,152593.16
2023-04-15T17:12:53.332Z,152588.00
2023-04-15T17:15:50.175Z,152594.44
2023-04-15T17:57:32.622Z,152321.66
2023-04-15T18:00:07.211Z,152270.00
2023-04-15T18:03:03.770Z,152250.63
2023-04-15T18:09:00.326Z,152249.28
2023-04-15T18:11:35.008Z,152263.50
2023-04-15T18:17:02.186Z,152233.78
2023-04-15T18:19:36.221Z,152241.56
2023-04-15T18:22:08.138Z,152233.78
2023-04-15T18:24:51.185Z,152244.13
2023-04-15T18:30:23.716Z,152191.19
2023-04-15T18:32:59.853Z,152186.03
2023-04-15T18:38:27.062Z,152195.03
2023-04-15T18:41:02.378Z,152195.03
2023-04-15T18:43:48.117Z,152205.41
2023-04-15T18:46:22.554Z,152206.69
2023-04-15T18:48:55.830Z,152200.25
2023-04-15T18:51:35.526Z,152193.75
2023-04-15T18:57:05.494Z,152189.88
2023-04-15T18:59:43.008Z,152189.88
2023-04-15T19:05:32.139Z,152198.91
2023-04-15T19:21:48.102Z,152164.03
2023-04-15T19:36:13.662Z,152156.31
2023-04-15T19:43:04.369Z,152169.22
2023-04-15T19:46:24.594Z,152153.72
2023-04-15T19:52:12.140Z,152158.88
2023-04-15T20:08:30.790Z,152134.34
2023-04-15T20:11:03.996Z,152135.63
2023-04-15T20:16:23.211Z,152131.78
2023-04-15T20:18:54.950Z,152131.78
2023-04-15T20:47:38.039Z,152099.47
2023-04-15T20:50:32.118Z,152098.19
2023-04-15T20:56:08.395Z,152100.75
2023-04-15T21:05:10.418Z,152104.63
2023-04-15T21:07:53.519Z,152099.47
2023-04-15T21:13:22.275Z,152099.47
2023-04-15T21:18:46.007Z,152099.47
2023-04-15T21:21:17.831Z,152103.38
2023-04-15T21:24:08.571Z,152104.63
2023-04-15T21:32:36.465Z,152095.59
2023-04-15T21:35:07.514Z,152102.09
2023-04-15T21:37:38.557Z,152100.75
2023-04-15T21:40:15.139Z,152102.09
2023-04-15T21:42:48.057Z,152096.91
2023-04-15T21:45:20.618Z,152104.63
2023-04-15T21:47:59.699Z,152100.75
2023-04-15T21:50:39.662Z,152099.47
2023-04-15T21:53:11.893Z,152091.75
2023-04-15T21:55:45.795Z,152100.75
2023-04-15T21:58:16.838Z,152091.75
2023-04-15T22:00:48.971Z,152089.16
2023-04-15T22:03:22.352Z,152091.75
2023-04-15T22:05:53.612Z,152093.03
2023-04-15T22:08:24.441Z,152091.75
2023-04-15T22:10:59.351Z,152095.59
2023-04-15T22:13:30.174Z,152086.59
2023-04-15T22:16:01.992Z,152084.00
2023-04-15T22:18:34.149Z,152078.81
2023-04-15T22:21:05.463Z,152063.34
2023-04-15T22:23:36.411Z,152074.94
2023-04-15T22:26:11.460Z,152058.19
2023-04-15T22:28:42.771Z,152059.44
2023-04-15T22:31:19.945Z,152058.19
2023-04-15T22:33:52.576Z,152041.38
2023-04-15T22:36:25.642Z,152053.00
2023-04-15T22:38:56.765Z,152053.00
2023-04-15T22:41:30.609Z,152055.56
2023-04-15T22:44:01.805Z,152060.72
2023-04-15T22:46:33.843Z,152058.19
2023-04-15T22:49:04.956Z,152060.72
2023-04-15T22:51:37.220Z,152049.13
2023-04-15T22:54:07.842Z,152040.09
2023-04-15T22:56:41.509Z,152022.00
2023-04-15T22:59:12.502Z,152019.44
2023-04-15T23:01:43.213Z,152005.22
2023-04-15T23:04:26.143Z,151992.31
2023-04-15T23:06:57.176Z,151983.31
2023-04-15T23:09:27.826Z,151976.81
2023-04-15T23:12:02.696Z,151976.81
2023-04-15T23:14:34.052Z,151960.06
2023-04-15T23:17:04.899Z,151951.00
2023-04-15T23:19:35.888Z,151947.13
2023-04-15T23:22:07.739Z,151940.69
2023-04-15T23:24:41.112Z,151941.97
2023-04-15T23:27:17.533Z,151949.72
2023-04-15T23:29:51.429Z,151941.97
2023-04-15T23:35:29.587Z,151939.41
2023-04-15T23:38:11.754Z,151949.72
2023-04-15T23:50:30.753Z,151938.09
2023-04-15T23:56:19.257Z,151931.66
2023-04-15T23:58:53.732Z,151914.88
